Time;durP1;ratioP1;P1;durP2;ratioP2;P2;SDS_P1;SDS_P2;PMS_P1;PMS_P2;Temp;Humidity;BMP_temperature;BMP_pressure;BME280_temperature;BME280_humidity;BME280_pressure;Samples;Min_cycle;Max_cycle;Signal;HPM_P1;HPM_P2
2024/01/17 00:01:56;;;;;;;;;;;0.50;99.90;;;;;;5083858;27;20394;-60
2024/01/17 00:04:21;;;;;;;;;;;0.50;99.90;;;;;;5100434;27;19923;-61
2024/01/17 00:06:47;;;;;;;;;;;0.40;99.90;;;;;;5091786;27;20030;-61
2024/01/17 00:09:14;;;;;;;;;;;0.40;99.90;;;;;;5087374;27;19927;-60
2024/01/17 00:11:40;;;;;;;;;;;0.40;99.90;;;;;;5089358;27;19928;-59
2024/01/17 00:14:06;;;;;;;;;;;0.40;99.90;;;;;;5103174;27;22123;-61
2024/01/17 00:16:31;;;;;;;;;;;0.40;99.90;;;;;;5069366;27;20847;-59
2024/01/17 00:18:57;;;;;;;;;;;0.30;99.90;;;;;;5101947;27;20048;-60
2024/01/17 00:21:23;;;;;;;;;;;0.40;99.90;;;;;;5102764;27;20309;-60
2024/01/17 00:23:49;;;;;;;;;;;0.40;99.90;;;;;;5101247;27;19971;-59
2024/01/17 00:26:14;;;;;;;;;;;0.30;99.90;;;;;;5086730;27;20433;-61
2024/01/17 00:28:40;;;;;;;;;;;0.30;99.90;;;;;;5084274;27;19997;-61
2024/01/17 00:31:06;;;;;;;;;;;0.30;99.90;;;;;;5101796;27;20578;-61
2024/01/17 00:33:31;;;;;;;;;;;0.30;99.90;;;;;;5072616;27;19924;-61
2024/01/17 00:35:57;;;;;;;;;;;0.30;99.90;;;;;;5081268;27;19933;-61
2024/01/17 00:38:23;;;;;;;;;;;0.30;99.90;;;;;;5088739;27;19927;-60
2024/01/17 00:40:48;;;;;;;;;;;0.30;99.90;;;;;;5101565;27;19931;-60
2024/01/17 00:43:14;;;;;;;;;;;0.40;99.90;;;;;;5110389;27;19930;-59
2024/01/17 00:45:40;;;;;;;;;;;0.30;99.90;;;;;;5086473;27;19923;-61
2024/01/17 00:48:05;;;;;;;;;;;0.30;99.90;;;;;;5087590;27;20404;-61
2024/01/17 00:50:31;;;;;;;;;;;0.30;99.90;;;;;;5085437;27;19930;-61
2024/01/17 00:52:56;;;;;;;;;;;0.30;99.90;;;;;;5082987;28;19934;-61
2024/01/17 00:55:22;;;;;;;;;;;0.30;99.90;;;;;;5088541;28;20392;-61
2024/01/17 00:57:48;;;;;;;;;;;0.30;99.90;;;;;;5073032;28;19927;-61
2024/01/17 01:00:13;;;;;;;;;;;0.30;99.90;;;;;;5088895;27;20238;-60
2024/01/17 01:02:39;;;;;;;;;;;0.30;99.90;;;;;;5090768;28;20060;-60
2024/01/17 01:05:05;;;;;;;;;;;0.40;99.90;;;;;;5088603;28;19924;-61
2024/01/17 01:07:30;;;;;;;;;;;0.30;99.90;;;;;;5088667;28;19920;-61
2024/01/17 01:09:56;;;;;;;;;;;0.30;99.90;;;;;;5073289;28;19923;-61
2024/01/17 01:12:21;;;;;;;;;;;0.30;99.90;;;;;;5090475;28;19935;-61
2024/01/17 01:14:47;;;;;;;;;;;0.30;99.90;;;;;;5073617;28;19920;-61
2024/01/17 01:17:13;;;;;;;;;;;0.30;99.90;;;;;;5086647;28;20023;-61
2024/01/17 01:19:38;;;;;;;;;;;0.30;99.90;;;;;;5066541;28;19935;-59
2024/01/17 01:22:04;;;;;;;;;;;0.30;99.90;;;;;;5086864;27;19924;-60
2024/01/17 01:24:29;;;;;;;;;;;0.30;99.90;;;;;;5090726;28;19958;-60
2024/01/17 01:26:55;;;;;;;;;;;0.40;99.90;;;;;;5072320;28;19959;-61
2024/01/17 01:29:20;;;;;;;;;;;0.30;99.90;;;;;;5068041;28;19935;-61
2024/01/17 01:31:46;;;;;;;;;;;0.30;99.90;;;;;;5069277;28;19946;-60
2024/01/17 01:34:12;;;;;;;;;;;0.30;99.90;;;;;;5095165;28;19978;-60
2024/01/17 01:36:37;;;;;;;;;;;0.30;99.90;;;;;;5068618;28;20275;-61
2024/01/17 01:39:03;;;;;;;;;;;0.30;99.90;;;;;;5053321;28;20344;-60
2024/01/17 01:41:28;;;;;;;;;;;0.30;99.90;;;;;;5090058;28;20514;-61
2024/01/17 01:43:54;;;;;;;;;;;0.30;99.90;;;;;;5091342;28;19924;-61
2024/01/17 01:46:29;;;;;;;;;;;0.30;99.90;;;;;;5087008;28;19936;-61
2024/01/17 01:48:55;;;;;;;;;;;0.30;99.90;;;;;;5089949;28;19923;-60
2024/01/17 01:51:21;;;;;;;;;;;0.40;99.90;;;;;;5064459;28;19934;-60
2024/01/17 01:53:52;;;;;;;;;;;0.40;99.90;;;;;;5071995;28;19924;-61
2024/01/17 01:56:19;;;;;;;;;;;0.40;99.90;;;;;;5089994;28;19923;-60
2024/01/17 01:58:46;;;;;;;;;;;0.40;99.90;;;;;;5070142;28;19924;-61
2024/01/17 02:01:14;;;;;;;;;;;0.50;99.90;;;;;;5068736;28;20256;-61
2024/01/17 02:03:41;;;;;;;;;;;0.40;99.90;;;;;;5090159;28;19934;-61
2024/01/17 02:06:06;;;;;;;;;;;0.30;99.90;;;;;;5085658;28;19936;-61
2024/01/17 02:08:32;;;;;;;;;;;0.50;99.90;;;;;;5088354;28;19927;-60
2024/01/17 02:10:58;;;;;;;;;;;0.30;99.90;;;;;;5084752;28;20465;-61
2024/01/17 02:13:25;;;;;;;;;;;0.30;99.90;;;;;;5064612;28;20042;-61
2024/01/17 02:15:51;;;;;;;;;;;0.30;99.90;;;;;;5090717;28;20374;-60
2024/01/17 02:18:16;;;;;;;;;;;0.30;99.90;;;;;;5066446;28;20147;-60
2024/01/17 02:20:42;;;;;;;;;;;0.30;99.90;;;;;;5064870;28;19931;-61
2024/01/17 02:23:40;;;;;;;;;;;0.40;99.90;;;;;;5066900;28;19928;-61
2024/01/17 02:26:06;;;;;;;;;;;0.30;99.90;;;;;;5067707;28;19963;-61
2024/01/17 02:28:32;;;;;;;;;;;0.20;99.90;;;;;;5093745;28;20055;-59
2024/01/17 02:30:58;;;;;;;;;;;0.20;99.90;;;;;;5071498;28;19974;-61
2024/01/17 02:33:23;;;;;;;;;;;0.20;99.90;;;;;;5093108;28;20010;-61
2024/01/17 02:35:49;;;;;;;;;;;0.30;99.90;;;;;;5078369;28;19996;-60
2024/01/17 02:38:14;;;;;;;;;;;0.20;99.90;;;;;;5074379;28;19923;-61
2024/01/17 02:40:40;;;;;;;;;;;0.20;99.90;;;;;;5071272;28;19932;-59
2024/01/17 02:43:06;;;;;;;;;;;0.20;99.90;;;;;;5066086;28;20390;-61
2024/01/17 02:45:31;;;;;;;;;;;0.20;99.90;;;;;;5068404;28;19924;-60
2024/01/17 02:47:57;;;;;;;;;;;0.20;99.90;;;;;;5092104;28;20086;-61
2024/01/17 02:50:23;;;;;;;;;;;0.20;99.90;;;;;;5088060;28;21050;-61
2024/01/17 02:52:49;;;;;;;;;;;0.20;99.90;;;;;;5086221;28;19924;-61
2024/01/17 02:55:18;;;;;;;;;;;0.20;99.90;;;;;;5078039;28;20882;-61
2024/01/17 02:57:43;;;;;;;;;;;0.10;99.90;;;;;;5078874;28;19931;-60
2024/01/17 03:00:09;;;;;;;;;;;0.10;99.90;;;;;;5081532;28;20377;-61
2024/01/17 03:02:35;;;;;;;;;;;0.20;99.90;;;;;;5081954;27;20389;-61
2024/01/17 03:05:01;;;;;;;;;;;0.20;99.90;;;;;;5077368;28;19973;-61
2024/01/17 03:07:26;;;;;;;;;;;0.10;99.90;;;;;;5080482;28;20422;-62
2024/01/17 03:09:52;;;;;;;;;;;0.10;99.90;;;;;;5082800;27;19931;-61
2024/01/17 03:12:19;;;;;;;;;;;0.10;99.90;;;;;;5078150;28;20462;-60
2024/01/17 03:14:45;;;;;;;;;;;0.10;99.90;;;;;;5080006;28;19928;-62
2024/01/17 03:17:12;;;;;;;;;;;0.20;99.90;;;;;;5077763;28;19920;-60
2024/01/17 03:19:38;;;;;;;;;;;0.10;99.90;;;;;;5075528;28;19966;-60
2024/01/17 03:22:04;;;;;;;;;;;0.10;99.90;;;;;;5081280;28;19962;-61
2024/01/17 03:24:29;;;;;;;;;;;0.10;99.90;;;;;;5081631;28;20197;-60
2024/01/17 03:26:55;;;;;;;;;;;0.10;99.90;;;;;;5084730;28;19924;-61
2024/01/17 03:29:20;;;;;;;;;;;0.00;99.90;;;;;;5082677;28;19970;-61
2024/01/17 03:31:47;;;;;;;;;;;0.10;99.90;;;;;;5080012;28;19928;-60
2024/01/17 03:34:13;;;;;;;;;;;0.00;99.90;;;;;;5081080;28;20280;-61
2024/01/17 03:36:38;;;;;;;;;;;0.00;99.90;;;;;;5086894;28;19930;-61
2024/01/17 03:39:04;;;;;;;;;;;0.00;99.90;;;;;;5081849;28;19962;-61
2024/01/17 03:41:29;;;;;;;;;;;0.00;99.90;;;;;;5079405;28;19970;-59
2024/01/17 03:43:57;;;;;;;;;;;0.00;99.90;;;;;;5080019;28;20324;-61
2024/01/17 03:46:22;;;;;;;;;;;0.00;99.90;;;;;;5078775;28;19935;-61
2024/01/17 03:48:48;;;;;;;;;;;0.00;99.90;;;;;;5077217;28;19923;-61
2024/01/17 03:51:13;;;;;;;;;;;0.00;99.90;;;;;;5078806;28;20439;-61
2024/01/17 03:53:39;;;;;;;;;;;0.00;99.90;;;;;;5079959;28;20770;-60
2024/01/17 03:56:04;;;;;;;;;;;0.10;99.90;;;;;;5080456;28;19953;-61
2024/01/17 03:58:30;;;;;;;;;;;0.00;99.90;;;;;;5063416;28;19931;-61
2024/01/17 04:00:56;;;;;;;;;;;0.00;99.90;;;;;;5064033;28;19928;-61
2024/01/17 04:03:21;;;;;;;;;;;0.00;99.90;;;;;;5062465;28;19927;-62
2024/01/17 04:05:47;;;;;;;;;;;0.00;99.90;;;;;;5066822;28;19934;-61
2024/01/17 04:08:12;;;;;;;;;;;-0.10;99.90;;;;;;5077487;28;20310;-61
2024/01/17 04:10:38;;;;;;;;;;;-0.10;99.90;;;;;;5058393;28;19924;-60
2024/01/17 04:13:03;;;;;;;;;;;-0.10;99.90;;;;;;5077009;28;20321;-61
2024/01/17 04:15:29;;;;;;;;;;;0.00;99.90;;;;;;5083704;28;19975;-61
2024/01/17 04:17:55;;;;;;;;;;;-0.10;99.90;;;;;;5061379;28;20499;-61
2024/01/17 04:20:20;;;;;;;;;;;-0.10;99.90;;;;;;5080385;28;19928;-61
2024/01/17 04:22:46;;;;;;;;;;;0.00;99.90;;;;;;5084940;28;19924;-61
2024/01/17 04:25:12;;;;;;;;;;;-0.20;99.90;;;;;;5065289;28;19935;-61
2024/01/17 04:27:37;;;;;;;;;;;-0.20;99.90;;;;;;5047073;28;21354;-60
2024/01/17 04:30:04;;;;;;;;;;;-0.20;99.90;;;;;;5063125;28;19939;-61
2024/01/17 04:32:32;;;;;;;;;;;-0.20;99.90;;;;;;5060714;28;19935;-60
2024/01/17 04:34:58;;;;;;;;;;;-0.30;99.90;;;;;;5059377;28;19963;-61
2024/01/17 04:37:23;;;;;;;;;;;-0.30;99.90;;;;;;5081283;28;20217;-61
2024/01/17 04:39:49;;;;;;;;;;;-0.30;99.90;;;;;;5062596;28;19924;-60
2024/01/17 04:42:14;;;;;;;;;;;-0.30;99.90;;;;;;5080506;28;20360;-61
2024/01/17 04:44:40;;;;;;;;;;;-0.30;99.90;;;;;;5081245;28;20279;-61
2024/01/17 04:47:06;;;;;;;;;;;-0.30;99.90;;;;;;5081819;28;19934;-60
2024/01/17 04:49:31;;;;;;;;;;;-0.30;99.90;;;;;;5073719;28;19941;-61
2024/01/17 04:51:57;;;;;;;;;;;-0.30;99.90;;;;;;5082375;28;20453;-61
2024/01/17 04:54:23;;;;;;;;;;;-0.30;99.90;;;;;;5074206;28;19957;-61
2024/01/17 04:56:49;;;;;;;;;;;-0.30;99.90;;;;;;5085932;28;20374;-61
2024/01/17 04:59:15;;;;;;;;;;;-0.30;99.90;;;;;;5085073;28;19924;-61
2024/01/17 05:01:41;;;;;;;;;;;-0.30;99.90;;;;;;5083443;28;19969;-61
2024/01/17 05:04:08;;;;;;;;;;;-0.30;99.90;;;;;;5089118;28;20519;-61
2024/01/17 05:06:33;;;;;;;;;;;-0.30;99.90;;;;;;5082066;28;19963;-61
2024/01/17 05:08:59;;;;;;;;;;;-0.30;99.90;;;;;;5092398;28;20038;-61
2024/01/17 05:11:25;;;;;;;;;;;-0.40;99.90;;;;;;5086416;28;19920;-60
2024/01/17 05:13:51;;;;;;;;;;;-0.30;99.90;;;;;;5087363;28;19924;-61
2024/01/17 05:16:17;;;;;;;;;;;-0.40;99.90;;;;;;5081368;28;20489;-61
2024/01/17 05:18:43;;;;;;;;;;;-0.40;99.90;;;;;;5085065;28;20393;-61
2024/01/17 05:21:08;;;;;;;;;;;-0.40;99.90;;;;;;5080191;28;19931;-61
2024/01/17 05:23:34;;;;;;;;;;;-0.40;99.90;;;;;;5081755;28;19973;-61
2024/01/17 05:26:00;;;;;;;;;;;-0.40;99.90;;;;;;5081831;28;20412;-61
2024/01/17 05:28:25;;;;;;;;;;;-0.40;99.90;;;;;;5082887;28;19937;-61
2024/01/17 05:30:51;;;;;;;;;;;-0.40;99.90;;;;;;5088959;28;20032;-61
2024/01/17 05:33:16;;;;;;;;;;;-0.40;99.90;;;;;;5086438;28;19924;-61
2024/01/17 05:35:42;;;;;;;;;;;-0.40;99.90;;;;;;5074729;28;19932;-61
2024/01/17 05:38:07;;;;;;;;;;;-0.40;99.90;;;;;;5087152;28;20507;-60
2024/01/17 05:40:33;;;;;;;;;;;-0.40;99.90;;;;;;5090727;28;19924;-61
2024/01/17 05:43:00;;;;;;;;;;;-0.40;99.90;;;;;;5087723;27;20441;-61
2024/01/17 05:45:26;;;;;;;;;;;-0.40;99.90;;;;;;5098303;28;19920;-61
2024/01/17 05:47:51;;;;;;;;;;;-0.40;99.90;;;;;;5088392;28;20644;-61
2024/01/17 05:50:17;;;;;;;;;;;-0.50;99.90;;;;;;5088276;28;20530;-61
2024/01/17 05:52:43;;;;;;;;;;;-0.50;99.90;;;;;;5088159;28;21434;-61
2024/01/17 05:55:09;;;;;;;;;;;-0.50;99.90;;;;;;5083694;28;21219;-61
2024/01/17 05:57:35;;;;;;;;;;;-0.50;99.90;;;;;;5068031;28;19924;-61
2024/01/17 06:00:01;;;;;;;;;;;-0.50;99.90;;;;;;5063689;28;20002;-61
2024/01/17 06:02:27;;;;;;;;;;;-0.60;99.90;;;;;;5065131;28;19920;-62
2024/01/17 06:04:52;;;;;;;;;;;-0.60;99.90;;;;;;5054345;28;19923;-61
2024/01/17 06:07:18;;;;;;;;;;;-0.50;99.90;;;;;;5058419;28;19930;-61
2024/01/17 06:09:43;;;;;;;;;;;-0.60;99.90;;;;;;5086304;28;19924;-61
2024/01/17 06:12:10;;;;;;;;;;;-0.70;99.90;;;;;;5050799;28;20005;-61
2024/01/17 06:14:35;;;;;;;;;;;-0.70;99.90;;;;;;5084657;28;19990;-60
2024/01/17 06:17:01;;;;;;;;;;;-0.70;99.90;;;;;;5064283;28;19923;-61
2024/01/17 06:19:27;;;;;;;;;;;-0.70;99.90;;;;;;5048397;28;20266;-61
2024/01/17 06:21:52;;;;;;;;;;;-0.80;99.90;;;;;;5062671;28;19966;-60
2024/01/17 06:24:18;;;;;;;;;;;-0.80;99.90;;;;;;5077864;28;19928;-62
2024/01/17 06:26:43;;;;;;;;;;;-0.80;99.90;;;;;;5070550;28;19924;-61
2024/01/17 06:29:10;;;;;;;;;;;-0.80;99.90;;;;;;5061104;28;20069;-61
2024/01/17 06:31:36;;;;;;;;;;;-0.90;99.90;;;;;;5047205;28;19977;-61
2024/01/17 06:34:01;;;;;;;;;;;-0.90;99.90;;;;;;5071875;28;20512;-61
2024/01/17 06:36:27;;;;;;;;;;;-0.90;99.90;;;;;;5079603;28;19971;-61
2024/01/17 06:38:52;;;;;;;;;;;-0.90;99.90;;;;;;5070976;28;19924;-61
2024/01/17 06:41:18;;;;;;;;;;;-0.90;99.90;;;;;;5047425;28;20327;-61
2024/01/17 06:43:45;;;;;;;;;;;-0.90;99.90;;;;;;5073939;28;19924;-60
2024/01/17 06:46:10;;;;;;;;;;;-0.90;99.90;;;;;;5061112;28;20050;-61
2024/01/17 06:48:36;;;;;;;;;;;-0.90;99.90;;;;;;5075558;28;19924;-60
2024/01/17 06:51:02;;;;;;;;;;;-0.90;99.90;;;;;;5076681;28;20077;-61
2024/01/17 06:53:28;;;;;;;;;;;-0.90;99.90;;;;;;5077885;28;19924;-61
2024/01/17 06:55:54;;;;;;;;;;;-0.90;99.90;;;;;;5069359;28;20389;-61
2024/01/17 06:58:19;;;;;;;;;;;-0.90;99.90;;;;;;5081165;28;20550;-61
2024/01/17 07:00:45;;;;;;;;;;;-0.90;99.90;;;;;;5086255;28;19930;-60
2024/01/17 07:03:11;;;;;;;;;;;-1.00;99.90;;;;;;5083665;28;19923;-60
2024/01/17 07:05:37;;;;;;;;;;;-1.00;99.90;;;;;;5086140;28;19923;-61
2024/01/17 07:08:03;;;;;;;;;;;-1.00;99.90;;;;;;5065273;28;20673;-61
2024/01/17 07:10:28;;;;;;;;;;;-1.00;99.90;;;;;;5090376;28;20023;-61
2024/01/17 07:12:54;;;;;;;;;;;-1.00;99.90;;;;;;5077045;28;19927;-61
2024/01/17 07:15:19;;;;;;;;;;;-0.90;99.90;;;;;;5088124;28;19934;-61
2024/01/17 07:17:45;;;;;;;;;;;-1.00;99.90;;;;;;5070873;28;19919;-61
2024/01/17 07:20:12;;;;;;;;;;;-0.80;99.90;;;;;;5086706;28;20294;-61
2024/01/17 07:22:41;;;;;;;;;;;-1.00;99.90;;;;;;5086939;28;20014;-61
2024/01/17 07:25:13;;;;;;;;;;;-1.00;99.90;;;;;;5071564;28;19920;-60
2024/01/17 07:27:44;;;;;;;;;;;-1.00;99.90;;;;;;5067816;28;19928;-60
2024/01/17 07:30:13;;;;;;;;;;;-1.00;99.90;;;;;;5081307;28;20422;-61
2024/01/17 07:32:39;;;;;;;;;;;-1.00;99.90;;;;;;5083200;28;19920;-60
2024/01/17 07:35:05;;;;;;;;;;;-1.00;99.90;;;;;;5080236;28;19928;-60
2024/01/17 07:37:35;;;;;;;;;;;-1.10;99.90;;;;;;5069280;28;19928;-61
2024/01/17 07:40:01;;;;;;;;;;;-1.10;99.90;;;;;;5073647;28;20366;-60
2024/01/17 07:42:26;;;;;;;;;;;-1.10;99.90;;;;;;5075337;28;20530;-61
2024/01/17 07:44:52;;;;;;;;;;;-1.10;99.90;;;;;;5058422;28;19977;-60
2024/01/17 07:47:18;;;;;;;;;;;-1.10;99.90;;;;;;5083737;28;19966;-62
2024/01/17 07:49:44;;;;;;;;;;;-1.00;99.90;;;;;;5066853;28;20412;-60
2024/01/17 07:52:09;;;;;;;;;;;-1.10;99.90;;;;;;5072585;28;19974;-61
2024/01/17 07:54:36;;;;;;;;;;;-1.10;99.90;;;;;;5053816;28;19928;-61
2024/01/17 07:57:02;;;;;;;;;;;-1.10;99.90;;;;;;5068571;28;19928;-63
2024/01/17 07:59:28;;;;;;;;;;;-1.10;99.90;;;;;;5069555;28;20290;-62
2024/01/17 08:01:54;;;;;;;;;;;-1.10;99.90;;;;;;5069510;28;19934;-62
2024/01/17 08:04:20;;;;;;;;;;;-1.10;99.90;;;;;;5090245;28;19982;-62
2024/01/17 08:06:46;;;;;;;;;;;-1.10;99.90;;;;;;5077120;28;20018;-62
2024/01/17 08:09:20;;;;;;;;;;;-1.20;99.90;;;;;;5088821;28;20148;-61
2024/01/17 08:11:56;;;;;;;;;;;-1.10;99.90;;;;;;5065554;28;19978;-62
2024/01/17 08:14:22;;;;;;;;;;;-1.20;99.90;;;;;;5069686;28;20121;-62
2024/01/17 08:16:47;;;;;;;;;;;-1.20;99.90;;;;;;5085995;28;19976;-62
2024/01/17 08:19:14;;;;;;;;;;;-1.20;99.90;;;;;;5068744;28;20419;-62
2024/01/17 08:21:49;;;;;;;;;;;-1.20;99.90;;;;;;5078316;28;19919;-62
2024/01/17 08:24:15;;;;;;;;;;;-1.20;99.90;;;;;;5072717;28;19965;-62
2024/01/17 08:26:41;;;;;;;;;;;-1.20;99.90;;;;;;5090447;28;19924;-61
2024/01/17 08:29:06;;;;;;;;;;;-1.20;99.90;;;;;;5061353;28;20271;-62
2024/01/17 08:31:32;;;;;;;;;;;-1.20;99.90;;;;;;5094213;28;19928;-62
2024/01/17 08:33:58;;;;;;;;;;;-1.20;99.90;;;;;;5072089;28;19941;-62
2024/01/17 08:36:27;;;;;;;;;;;-1.20;99.90;;;;;;5070580;28;19928;-62
2024/01/17 08:38:53;;;;;;;;;;;-1.20;99.90;;;;;;5072164;28;19923;-61
2024/01/17 08:41:19;;;;;;;;;;;-1.20;99.90;;;;;;5059532;28;19996;-63
2024/01/17 08:43:45;;;;;;;;;;;-1.20;99.90;;;;;;5060449;28;20341;-62
2024/01/17 08:46:13;;;;;;;;;;;-1.20;99.90;;;;;;5074077;28;20531;-62
2024/01/17 08:48:40;;;;;;;;;;;-1.30;99.90;;;;;;5076810;28;19965;-60
2024/01/17 08:51:07;;;;;;;;;;;-1.20;99.90;;;;;;5079659;28;20003;-62
2024/01/17 08:53:33;;;;;;;;;;;-1.20;99.90;;;;;;5095596;28;20138;-62
2024/01/17 08:56:04;;;;;;;;;;;-1.20;99.90;;;;;;5106684;27;20500;-62
2024/01/17 08:58:33;;;;;;;;;;;-1.20;99.90;;;;;;5092737;27;20374;-62
2024/01/17 09:00:59;;;;;;;;;;;-1.20;99.90;;;;;;5112079;27;19993;-62
2024/01/17 09:03:25;;;;;;;;;;;-1.20;99.90;;;;;;5108361;27;19919;-61
2024/01/17 09:05:50;;;;;;;;;;;-1.10;99.90;;;;;;5108972;27;19924;-62
2024/01/17 09:08:16;;;;;;;;;;;-1.10;99.90;;;;;;5109445;27;19923;-60
2024/01/17 09:10:42;;;;;;;;;;;-1.10;99.90;;;;;;5077712;27;20461;-62
2024/01/17 09:13:09;;;;;;;;;;;-1.00;99.90;;;;;;5095562;27;19919;-61
2024/01/17 09:15:35;;;;;;;;;;;-1.00;99.90;;;;;;5086433;27;20261;-61
2024/01/17 09:18:00;;;;;;;;;;;-1.00;99.90;;;;;;5089866;27;19931;-62
2024/01/17 09:20:27;;;;;;;;;;;-0.90;99.90;;;;;;5093884;27;19927;-61
2024/01/17 09:22:53;;;;;;;;;;;-0.90;99.90;;;;;;5114060;27;19962;-62
2024/01/17 09:25:19;;;;;;;;;;;-0.90;99.90;;;;;;5092343;27;20362;-62
2024/01/17 09:27:44;;;;;;;;;;;-0.90;99.90;;;;;;5100436;27;19923;-62
2024/01/17 09:30:10;;;;;;;;;;;-0.80;99.90;;;;;;5110881;27;19965;-61
2024/01/17 09:32:37;;;;;;;;;;;-0.80;99.90;;;;;;5093368;27;19923;-61
2024/01/17 09:35:03;;;;;;;;;;;-0.80;99.90;;;;;;5092824;27;20005;-62
2024/01/17 09:37:28;;;;;;;;;;;-0.80;99.90;;;;;;5109079;27;19931;-62
2024/01/17 09:39:54;;;;;;;;;;;-0.80;99.90;;;;;;5081461;27;20297;-62
2024/01/17 09:42:20;;;;;;;;;;;-0.80;99.90;;;;;;5110914;27;19923;-63
2024/01/17 09:44:46;;;;;;;;;;;-0.80;99.90;;;;;;5092680;27;19924;-61
2024/01/17 09:47:17;;;;;;;;;;;-0.80;99.90;;;;;;5094977;27;20229;-61
2024/01/17 09:49:43;;;;;;;;;;;-0.80;99.90;;;;;;5093898;27;19943;-61
2024/01/17 09:52:10;;;;;;;;;;;-0.80;99.90;;;;;;5096207;27;19923;-62
2024/01/17 09:54:36;;;;;;;;;;;-0.80;99.90;;;;;;5094846;27;19923;-61
2024/01/17 09:57:07;;;;;;;;;;;-0.70;99.90;;;;;;5077938;28;20411;-61
2024/01/17 09:59:43;;;;;;;;;;;-0.70;99.90;;;;;;5075747;28;20327;-61
2024/01/17 10:02:09;;;;;;;;;;;-0.80;99.90;;;;;;5063617;28;19936;-61
2024/01/17 10:04:36;;;;;;;;;;;-0.70;99.90;;;;;;5057492;28;20311;-61
2024/01/17 10:07:02;;;;;;;;;;;-0.70;99.90;;;;;;5071045;28;20408;-61
2024/01/17 10:09:28;;;;;;;;;;;-0.70;99.90;;;;;;5068948;28;19928;-61
2024/01/17 10:11:54;;;;;;;;;;;-0.70;99.90;;;;;;5052063;28;19923;-61
2024/01/17 10:14:23;;;;;;;;;;;-0.70;99.90;;;;;;5073620;28;20336;-61
2024/01/17 10:16:49;;;;;;;;;;;-0.60;99.90;;;;;;5056235;28;20449;-61
2024/01/17 10:19:16;;;;;;;;;;;-0.60;99.90;;;;;;5061033;28;19928;-61
2024/01/17 10:21:43;;;;;;;;;;;-0.60;99.90;;;;;;5063112;28;21206;-60
2024/01/17 10:24:10;;;;;;;;;;;-0.60;99.90;;;;;;5064646;28;20026;-62
2024/01/17 10:26:39;;;;;;;;;;;-0.60;99.90;;;;;;5058083;28;20059;-62
2024/01/17 10:29:04;;;;;;;;;;;-0.60;99.90;;;;;;5059828;28;20255;-62
2024/01/17 10:31:30;;;;;;;;;;;-0.60;99.90;;;;;;5043491;28;20001;-60
2024/01/17 10:33:56;;;;;;;;;;;-0.60;99.90;;;;;;5078100;28;19931;-60
2024/01/17 10:36:22;;;;;;;;;;;-0.60;99.90;;;;;;5081804;28;19932;-61
2024/01/17 10:38:48;;;;;;;;;;;-0.50;99.90;;;;;;5078420;28;20416;-61
2024/01/17 10:41:13;;;;;;;;;;;-0.60;99.90;;;;;;5082746;28;19924;-60
2024/01/17 10:43:53;;;;;;;;;;;-0.40;99.90;;;;;;5076708;28;20377;-60
2024/01/17 10:46:19;;;;;;;;;;;-0.50;99.90;;;;;;5072233;28;20438;-61
2024/01/17 10:48:44;;;;;;;;;;;-0.60;99.90;;;;;;5084526;28;19927;-60
2024/01/17 10:51:14;;;;;;;;;;;-0.50;99.90;;;;;;5086549;28;20382;-60
2024/01/17 10:53:39;;;;;;;;;;;-0.50;99.90;;;;;;5084487;28;20374;-60
2024/01/17 10:56:06;;;;;;;;;;;-0.50;99.90;;;;;;5088300;28;19974;-61
2024/01/17 10:58:34;;;;;;;;;;;-0.40;99.90;;;;;;5079274;28;19928;-60
2024/01/17 11:01:03;;;;;;;;;;;-0.50;99.90;;;;;;5088638;28;20018;-60
2024/01/17 11:03:30;;;;;;;;;;;-0.40;99.90;;;;;;5062419;28;19958;-60
2024/01/17 11:05:57;;;;;;;;;;;-0.40;99.90;;;;;;5063858;28;19923;-59
2024/01/17 11:08:23;;;;;;;;;;;-0.40;99.90;;;;;;5086404;28;20023;-60
2024/01/17 11:10:50;;;;;;;;;;;-0.40;99.90;;;;;;5088294;28;19923;-60
2024/01/17 11:13:16;;;;;;;;;;;-0.40;99.90;;;;;;5071047;28;19928;-59
2024/01/17 11:15:43;;;;;;;;;;;-0.20;99.90;;;;;;5089254;28;19927;-61
2024/01/17 11:18:10;;;;;;;;;;;-0.40;99.90;;;;;;5091508;28;19923;-60
2024/01/17 11:20:38;;;;;;;;;;;-0.40;99.90;;;;;;5091364;28;19973;-61
2024/01/17 11:23:04;;;;;;;;;;;-0.40;99.90;;;;;;5082580;28;20010;-61
2024/01/17 11:25:34;;;;;;;;;;;-0.30;99.90;;;;;;5066358;28;19928;-60
2024/01/17 11:28:06;;;;;;;;;;;-0.40;99.90;;;;;;5090553;28;19928;-60
2024/01/17 11:30:50;;;;;;;;;;;-0.30;99.90;;;;;;5070847;28;20328;-60
2024/01/17 11:33:16;;;;;;;;;;;-0.30;99.90;;;;;;5067239;28;19924;-60
2024/01/17 11:35:51;;;;;;;;;;;-0.30;99.90;;;;;;5085234;28;19928;-61
2024/01/17 11:38:23;;;;;;;;;;;-0.30;99.90;;;;;;5088254;28;20369;-59
2024/01/17 11:40:53;;;;;;;;;;;-0.30;99.90;;;;;;5071495;28;19983;-61
2024/01/17 11:43:19;;;;;;;;;;;-0.30;99.90;;;;;;5089719;28;19927;-61
2024/01/17 11:45:47;;;;;;;;;;;-0.30;99.90;;;;;;5063326;28;19924;-60
2024/01/17 11:48:18;;;;;;;;;;;-0.30;99.90;;;;;;5070061;28;20069;-61
2024/01/17 11:50:55;;;;;;;;;;;-0.30;99.90;;;;;;5068785;28;19941;-60
2024/01/17 11:53:24;;;;;;;;;;;-0.30;99.90;;;;;;5059556;28;19928;-61
2024/01/17 11:55:50;;;;;;;;;;;-0.30;99.90;;;;;;5086282;28;19932;-60
2024/01/17 11:58:16;;;;;;;;;;;-0.30;99.90;;;;;;5081653;28;19943;-63
2024/01/17 12:00:42;;;;;;;;;;;-0.30;99.90;;;;;;5089347;28;19920;-62
2024/01/17 12:03:07;;;;;;;;;;;-0.30;99.90;;;;;;5061342;28;19930;-62
2024/01/17 12:05:36;;;;;;;;;;;-0.20;99.90;;;;;;5075906;28;20095;-62
2024/01/17 12:08:05;;;;;;;;;;;-0.20;99.90;;;;;;5067045;28;21321;-62
2024/01/17 12:10:31;;;;;;;;;;;-0.30;99.90;;;;;;5072532;28;19924;-62
2024/01/17 12:12:57;;;;;;;;;;;-0.20;99.90;;;;;;5069656;28;19926;-61
2024/01/17 12:15:23;;;;;;;;;;;-0.20;99.90;;;;;;5086860;28;20398;-62
2024/01/17 12:17:50;;;;;;;;;;;-0.20;99.90;;;;;;5062082;28;20570;-62
2024/01/17 12:20:16;;;;;;;;;;;-0.10;99.90;;;;;;5068695;28;20122;-62
2024/01/17 12:22:50;;;;;;;;;;;-0.10;99.90;;;;;;5052422;28;20050;-61
2024/01/17 12:25:19;;;;;;;;;;;-0.10;99.90;;;;;;5071754;28;20371;-62
2024/01/17 12:27:54;;;;;;;;;;;0.00;99.90;;;;;;5047453;28;19932;-62
2024/01/17 12:30:19;;;;;;;;;;;0.00;99.90;;;;;;5070121;28;19920;-62
2024/01/17 12:32:46;;;;;;;;;;;0.00;99.90;;;;;;5065617;28;19984;-62
2024/01/17 12:35:12;;;;;;;;;;;0.00;99.90;;;;;;5063913;28;19928;-62
2024/01/17 12:37:38;;;;;;;;;;;0.10;99.90;;;;;;5064260;28;19934;-62
2024/01/17 12:40:04;;;;;;;;;;;0.10;99.90;;;;;;5064185;28;20014;-63
2024/01/17 12:42:33;;;;;;;;;;;0.10;99.90;;;;;;5049281;28;19931;-62
2024/01/17 12:44:59;;;;;;;;;;;0.10;99.90;;;;;;5068963;28;19934;-62
2024/01/17 12:47:24;;;;;;;;;;;0.10;99.90;;;;;;5072633;28;19924;-62
2024/01/17 12:49:50;;;;;;;;;;;0.20;99.90;;;;;;5080544;28;20283;-61
2024/01/17 12:52:18;;;;;;;;;;;0.20;99.90;;;;;;5064003;28;20058;-61
2024/01/17 12:54:43;;;;;;;;;;;0.20;99.90;;;;;;5059362;28;19928;-61
2024/01/17 12:57:09;;;;;;;;;;;0.20;99.90;;;;;;5068359;27;19989;-62
2024/01/17 12:59:35;;;;;;;;;;;0.20;99.90;;;;;;5071052;27;20365;-61
2024/01/17 13:02:00;;;;;;;;;;;0.20;99.90;;;;;;5080401;27;20047;-62
2024/01/17 13:04:26;;;;;;;;;;;0.30;99.90;;;;;;5064115;27;20441;-61
2024/01/17 13:06:57;;;;;;;;;;;0.30;99.90;;;;;;5102748;27;19927;-63
2024/01/17 13:09:23;;;;;;;;;;;0.30;99.90;;;;;;5081837;27;19930;-62
2024/01/17 13:11:49;;;;;;;;;;;0.30;99.90;;;;;;5105630;27;20507;-61
2024/01/17 13:14:16;;;;;;;;;;;0.30;99.90;;;;;;5102399;27;19924;-62
2024/01/17 13:16:42;;;;;;;;;;;0.30;99.90;;;;;;5080897;27;19931;-60
2024/01/17 13:19:08;;;;;;;;;;;0.40;99.90;;;;;;5102613;27;20420;-61
2024/01/17 13:21:35;;;;;;;;;;;0.40;99.90;;;;;;5082115;27;20012;-62
2024/01/17 13:24:00;;;;;;;;;;;0.40;99.90;;;;;;5079560;28;20296;-61
2024/01/17 13:26:26;;;;;;;;;;;0.40;99.90;;;;;;5077496;27;19923;-62
2024/01/17 13:28:53;;;;;;;;;;;0.40;99.90;;;;;;5100388;27;20385;-60
2024/01/17 13:31:18;;;;;;;;;;;0.40;99.90;;;;;;5098505;27;19935;-62
2024/01/17 13:33:44;;;;;;;;;;;0.40;99.90;;;;;;5081524;27;19924;-61
2024/01/17 13:36:09;;;;;;;;;;;0.40;99.90;;;;;;5074025;27;19948;-62
2024/01/17 13:38:35;;;;;;;;;;;0.40;99.90;;;;;;5092947;27;19988;-62
2024/01/17 13:41:01;;;;;;;;;;;0.40;99.90;;;;;;5073623;27;19928;-61
2024/01/17 13:43:27;;;;;;;;;;;0.40;99.90;;;;;;5093172;27;20421;-62
2024/01/17 13:45:53;;;;;;;;;;;0.40;99.90;;;;;;5070665;28;19934;-62
2024/01/17 13:48:18;;;;;;;;;;;0.40;99.90;;;;;;5089888;27;19927;-62
2024/01/17 13:50:45;;;;;;;;;;;0.40;99.90;;;;;;5090203;27;20381;-62
2024/01/17 13:53:17;;;;;;;;;;;0.40;99.90;;;;;;5074414;27;20370;-62
2024/01/17 13:55:46;;;;;;;;;;;0.40;99.90;;;;;;5075248;27;20026;-61
2024/01/17 13:58:12;;;;;;;;;;;0.30;99.90;;;;;;5086746;27;20873;-61
2024/01/17 14:00:38;;;;;;;;;;;0.40;99.90;;;;;;5088316;27;19929;-61
2024/01/17 14:03:04;;;;;;;;;;;0.40;99.90;;;;;;5070059;27;20916;-62
2024/01/17 14:05:30;;;;;;;;;;;0.40;99.90;;;;;;5084291;27;19927;-62
2024/01/17 14:07:55;;;;;;;;;;;0.40;99.90;;;;;;5091842;27;20011;-62
2024/01/17 14:10:23;;;;;;;;;;;0.40;99.90;;;;;;5089800;27;20422;-62
2024/01/17 14:12:49;;;;;;;;;;;0.40;99.90;;;;;;5103743;27;19975;-63
2024/01/17 14:15:16;;;;;;;;;;;0.40;99.90;;;;;;5097812;27;20869;-61
2024/01/17 14:17:41;;;;;;;;;;;0.40;99.90;;;;;;5077520;27;19934;-62
2024/01/17 14:20:16;;;;;;;;;;;0.40;99.90;;;;;;5081937;27;19932;-61